sensor_id;sensor_type;location;lat;lon;timestamp;P1;durP1;ratioP1;P2;durP2;ratioP2
13012;SDS011;22580;57.670;12.006;2024-01-30T00:02:16;0.60;;;0.33;;
13012;SDS011;22580;57.670;12.006;2024-01-30T00:04:44;0.40;;;0.40;;
13012;SDS011;22580;57.670;12.006;2024-01-30T00:07:11;0.40;;;0.30;;
13012;SDS011;22580;57.670;12.006;2024-01-30T00:09:38;0.37;;;0.30;;
13012;SDS011;22580;57.670;12.006;2024-01-30T00:12:05;0.30;;;0.30;;
13012;SDS011;22580;57.670;12.006;2024-01-30T00:14:33;0.30;;;0.30;;
13012;SDS011;22580;57.670;12.006;2024-01-30T00:17:00;0.30;;;0.30;;
13012;SDS011;22580;57.670;12.006;2024-01-30T00:19:27;0.20;;;0.20;;
13012;SDS011;22580;57.670;12.006;2024-01-30T00:21:56;0.40;;;0.40;;
13012;SDS011;22580;57.670;12.006;2024-01-30T00:24:23;0.33;;;0.33;;
13012;SDS011;22580;57.670;12.006;2024-01-30T00:26:50;0.30;;;0.30;;
13012;SDS011;22580;57.670;12.006;2024-01-30T00:29:17;0.23;;;0.23;;
13012;SDS011;22580;57.670;12.006;2024-01-30T00:31:45;0.50;;;0.50;;
13012;SDS011;22580;57.670;12.006;2024-01-30T00:34:12;0.30;;;0.30;;
13012;SDS011;22580;57.670;12.006;2024-01-30T00:36:39;0.40;;;0.40;;
13012;SDS011;22580;57.670;12.006;2024-01-30T00:39:08;0.43;;;0.30;;
13012;SDS011;22580;57.670;12.006;2024-01-30T00:41:35;0.30;;;0.30;;
13012;SDS011;22580;57.670;12.006;2024-01-30T00:44:02;0.50;;;0.40;;
13012;SDS011;22580;57.670;12.006;2024-01-30T00:46:29;0.30;;;0.30;;
13012;SDS011;22580;57.670;12.006;2024-01-30T00:48:56;0.30;;;0.30;;
13012;SDS011;22580;57.670;12.006;2024-01-30T00:51:23;0.37;;;0.30;;
13012;SDS011;22580;57.670;12.006;2024-01-30T00:53:50;0.40;;;0.40;;
13012;SDS011;22580;57.670;12.006;2024-01-30T00:56:19;0.30;;;0.30;;
13012;SDS011;22580;57.670;12.006;2024-01-30T00:58:46;0.20;;;0.20;;
13012;SDS011;22580;57.670;12.006;2024-01-30T01:01:13;0.37;;;0.37;;
13012;SDS011;22580;57.670;12.006;2024-01-30T01:03:40;0.33;;;0.30;;
13012;SDS011;22580;57.670;12.006;2024-01-30T01:06:09;0.40;;;0.40;;
13012;SDS011;22580;57.670;12.006;2024-01-30T01:08:36;0.20;;;0.20;;
13012;SDS011;22580;57.670;12.006;2024-01-30T01:11:03;0.30;;;0.30;;
13012;SDS011;22580;57.670;12.006;2024-01-30T01:13:32;0.60;;;0.50;;
13012;SDS011;22580;57.670;12.006;2024-01-30T01:15:59;0.30;;;0.30;;
13012;SDS011;22580;57.670;12.006;2024-01-30T01:18:26;0.40;;;0.40;;
13012;SDS011;22580;57.670;12.006;2024-01-30T01:20:54;0.40;;;0.40;;
13012;SDS011;22580;57.670;12.006;2024-01-30T01:23:22;0.53;;;0.40;;
13012;SDS011;22580;57.670;12.006;2024-01-30T01:25:49;0.30;;;0.30;;
13012;SDS011;22580;57.670;12.006;2024-01-30T01:28:16;0.20;;;0.20;;
13012;SDS011;22580;57.670;12.006;2024-01-30T01:30:45;0.40;;;0.40;;
13012;SDS011;22580;57.670;12.006;2024-01-30T01:33:12;0.30;;;0.30;;
13012;SDS011;22580;57.670;12.006;2024-01-30T01:35:39;0.20;;;0.20;;
13012;SDS011;22580;57.670;12.006;2024-01-30T01:38:06;0.20;;;0.20;;
13012;SDS011;22580;57.670;12.006;2024-01-30T01:40:33;0.20;;;0.20;;
13012;SDS011;22580;57.670;12.006;2024-01-30T01:43:02;0.37;;;0.23;;
13012;SDS011;22580;57.670;12.006;2024-01-30T01:45:30;0.20;;;0.20;;
13012;SDS011;22580;57.670;12.006;2024-01-30T01:47:58;0.30;;;0.30;;
13012;SDS011;22580;57.670;12.006;2024-01-30T01:50:26;0.37;;;0.37;;
13012;SDS011;22580;57.670;12.006;2024-01-30T01:52:53;0.27;;;0.27;;
13012;SDS011;22580;57.670;12.006;2024-01-30T01:55:21;0.30;;;0.30;;
13012;SDS011;22580;57.670;12.006;2024-01-30T01:57:50;0.20;;;0.20;;
13012;SDS011;22580;57.670;12.006;2024-01-30T02:00:18;0.20;;;0.20;;
13012;SDS011;22580;57.670;12.006;2024-01-30T02:02:46;0.23;;;0.23;;
13012;SDS011;22580;57.670;12.006;2024-01-30T02:05:15;0.30;;;0.30;;
13012;SDS011;22580;57.670;12.006;2024-01-30T02:07:43;0.20;;;0.20;;
13012;SDS011;22580;57.670;12.006;2024-01-30T02:10:10;0.20;;;0.20;;
13012;SDS011;22580;57.670;12.006;2024-01-30T02:12:38;0.20;;;0.20;;
13012;SDS011;22580;57.670;12.006;2024-01-30T02:15:05;0.30;;;0.30;;
13012;SDS011;22580;57.670;12.006;2024-01-30T02:17:33;0.20;;;0.10;;
13012;SDS011;22580;57.670;12.006;2024-01-30T02:20:00;0.30;;;0.30;;
13012;SDS011;22580;57.670;12.006;2024-01-30T02:22:30;0.20;;;0.20;;
13012;SDS011;22580;57.670;12.006;2024-01-30T02:24:59;0.20;;;0.20;;
13012;SDS011;22580;57.670;12.006;2024-01-30T02:27:26;0.30;;;0.30;;
13012;SDS011;22580;57.670;12.006;2024-01-30T02:29:53;0.20;;;0.20;;
13012;SDS011;22580;57.670;12.006;2024-01-30T02:32:20;0.10;;;0.10;;
13012;SDS011;22580;57.670;12.006;2024-01-30T02:34:47;0.20;;;0.20;;
13012;SDS011;22580;57.670;12.006;2024-01-30T02:37:16;0.10;;;0.10;;
13012;SDS011;22580;57.670;12.006;2024-01-30T02:39:45;0.30;;;0.30;;
13012;SDS011;22580;57.670;12.006;2024-01-30T02:42:12;0.20;;;0.20;;
13012;SDS011;22580;57.670;12.006;2024-01-30T02:44:39;0.10;;;0.10;;
13012;SDS011;22580;57.670;12.006;2024-01-30T02:47:07;0.20;;;0.20;;
13012;SDS011;22580;57.670;12.006;2024-01-30T02:49:35;0.20;;;0.20;;
13012;SDS011;22580;57.670;12.006;2024-01-30T02:52:03;0.20;;;0.20;;
13012;SDS011;22580;57.670;12.006;2024-01-30T02:54:30;0.20;;;0.20;;
13012;SDS011;22580;57.670;12.006;2024-01-30T02:56:59;0.30;;;0.30;;
13012;SDS011;22580;57.670;12.006;2024-01-30T02:59:26;0.20;;;0.20;;
13012;SDS011;22580;57.670;12.006;2024-01-30T03:01:54;0.20;;;0.20;;
13012;SDS011;22580;57.670;12.006;2024-01-30T03:04:21;0.30;;;0.30;;
13012;SDS011;22580;57.670;12.006;2024-01-30T03:06:48;0.27;;;0.27;;
13012;SDS011;22580;57.670;12.006;2024-01-30T03:09:16;0.30;;;0.30;;
13012;SDS011;22580;57.670;12.006;2024-01-30T03:11:43;0.13;;;0.13;;
13012;SDS011;22580;57.670;12.006;2024-01-30T03:14:13;0.10;;;0.10;;
13012;SDS011;22580;57.670;12.006;2024-01-30T03:16:41;0.20;;;0.20;;
13012;SDS011;22580;57.670;12.006;2024-01-30T03:19:09;0.20;;;0.20;;
13012;SDS011;22580;57.670;12.006;2024-01-30T03:21:36;0.20;;;0.20;;
13012;SDS011;22580;57.670;12.006;2024-01-30T03:24:03;0.20;;;0.20;;
13012;SDS011;22580;57.670;12.006;2024-01-30T03:26:30;0.30;;;0.30;;
13012;SDS011;22580;57.670;12.006;2024-01-30T03:28:57;0.20;;;0.20;;
13012;SDS011;22580;57.670;12.006;2024-01-30T03:31:25;0.20;;;0.20;;
13012;SDS011;22580;57.670;12.006;2024-01-30T03:33:52;0.10;;;0.10;;
13012;SDS011;22580;57.670;12.006;2024-01-30T03:36:19;0.20;;;0.20;;
13012;SDS011;22580;57.670;12.006;2024-01-30T03:38:46;0.30;;;0.20;;
13012;SDS011;22580;57.670;12.006;2024-01-30T03:41:13;0.13;;;0.13;;
13012;SDS011;22580;57.670;12.006;2024-01-30T03:43:40;0.20;;;0.20;;
13012;SDS011;22580;57.670;12.006;2024-01-30T03:46:08;0.20;;;0.20;;
13012;SDS011;22580;57.670;12.006;2024-01-30T03:48:36;0.20;;;0.20;;
13012;SDS011;22580;57.670;12.006;2024-01-30T03:51:04;0.10;;;0.10;;
13012;SDS011;22580;57.670;12.006;2024-01-30T03:53:31;0.20;;;0.20;;
13012;SDS011;22580;57.670;12.006;2024-01-30T03:56:01;0.10;;;0.10;;
13012;SDS011;22580;57.670;12.006;2024-01-30T03:58:28;0.23;;;0.20;;
13012;SDS011;22580;57.670;12.006;2024-01-30T04:00:55;0.10;;;0.10;;
13012;SDS011;22580;57.670;12.006;2024-01-30T04:03:22;0.20;;;0.20;;
13012;SDS011;22580;57.670;12.006;2024-01-30T04:05:51;0.20;;;0.20;;
13012;SDS011;22580;57.670;12.006;2024-01-30T04:08:18;0.30;;;0.30;;
13012;SDS011;22580;57.670;12.006;2024-01-30T04:10:45;0.20;;;0.20;;
13012;SDS011;22580;57.670;12.006;2024-01-30T04:13:12;0.30;;;0.30;;
13012;SDS011;22580;57.670;12.006;2024-01-30T04:15:39;0.10;;;0.10;;
13012;SDS011;22580;57.670;12.006;2024-01-30T04:18:07;0.10;;;0.10;;
13012;SDS011;22580;57.670;12.006;2024-01-30T04:20:35;0.20;;;0.20;;
13012;SDS011;22580;57.670;12.006;2024-01-30T04:23:04;0.10;;;0.10;;
13012;SDS011;22580;57.670;12.006;2024-01-30T04:25:31;0.20;;;0.20;;
13012;SDS011;22580;57.670;12.006;2024-01-30T04:27:59;0.33;;;0.33;;
13012;SDS011;22580;57.670;12.006;2024-01-30T04:30:26;0.17;;;0.17;;
13012;SDS011;22580;57.670;12.006;2024-01-30T04:32:54;0.20;;;0.20;;
13012;SDS011;22580;57.670;12.006;2024-01-30T04:35:21;0.20;;;0.20;;
13012;SDS011;22580;57.670;12.006;2024-01-30T04:37:50;0.20;;;0.20;;
13012;SDS011;22580;57.670;12.006;2024-01-30T04:40:20;0.20;;;0.20;;
13012;SDS011;22580;57.670;12.006;2024-01-30T04:42:48;0.20;;;0.20;;
13012;SDS011;22580;57.670;12.006;2024-01-30T04:45:17;0.20;;;0.20;;
13012;SDS011;22580;57.670;12.006;2024-01-30T04:47:45;0.20;;;0.10;;
13012;SDS011;22580;57.670;12.006;2024-01-30T04:50:11;0.37;;;0.37;;
13012;SDS011;22580;57.670;12.006;2024-01-30T04:52:39;0.20;;;0.20;;
13012;SDS011;22580;57.670;12.006;2024-01-30T04:55:06;0.30;;;0.30;;
13012;SDS011;22580;57.670;12.006;2024-01-30T04:57:36;0.23;;;0.23;;
13012;SDS011;22580;57.670;12.006;2024-01-30T05:00:03;0.30;;;0.30;;
13012;SDS011;22580;57.670;12.006;2024-01-30T05:02:31;0.20;;;0.20;;
13012;SDS011;22580;57.670;12.006;2024-01-30T05:04:58;0.30;;;0.30;;
13012;SDS011;22580;57.670;12.006;2024-01-30T05:07:26;0.37;;;0.37;;
13012;SDS011;22580;57.670;12.006;2024-01-30T05:09:53;0.20;;;0.20;;
13012;SDS011;22580;57.670;12.006;2024-01-30T05:12:20;0.20;;;0.20;;
13012;SDS011;22580;57.670;12.006;2024-01-30T05:14:49;0.30;;;0.30;;
13012;SDS011;22580;57.670;12.006;2024-01-30T05:17:16;0.40;;;0.40;;
13012;SDS011;22580;57.670;12.006;2024-01-30T05:19:43;0.40;;;0.40;;
13012;SDS011;22580;57.670;12.006;2024-01-30T05:22:11;0.10;;;0.10;;
13012;SDS011;22580;57.670;12.006;2024-01-30T05:24:40;0.20;;;0.20;;
13012;SDS011;22580;57.670;12.006;2024-01-30T05:27:07;0.20;;;0.20;;
13012;SDS011;22580;57.670;12.006;2024-01-30T05:29:34;0.20;;;0.20;;
13012;SDS011;22580;57.670;12.006;2024-01-30T05:32:04;0.30;;;0.30;;
13012;SDS011;22580;57.670;12.006;2024-01-30T05:34:31;0.27;;;0.27;;
13012;SDS011;22580;57.670;12.006;2024-01-30T05:36:59;0.10;;;0.10;;
13012;SDS011;22580;57.670;12.006;2024-01-30T05:39:26;0.20;;;0.20;;
13012;SDS011;22580;57.670;12.006;2024-01-30T05:41:53;0.20;;;0.20;;
13012;SDS011;22580;57.670;12.006;2024-01-30T05:44:20;0.23;;;0.23;;
13012;SDS011;22580;57.670;12.006;2024-01-30T05:46:47;0.20;;;0.20;;
13012;SDS011;22580;57.670;12.006;2024-01-30T05:49:16;0.20;;;0.20;;
13012;SDS011;22580;57.670;12.006;2024-01-30T05:51:43;0.20;;;0.20;;
13012;SDS011;22580;57.670;12.006;2024-01-30T05:54:10;0.27;;;0.27;;
13012;SDS011;22580;57.670;12.006;2024-01-30T05:56:37;0.20;;;0.20;;
13012;SDS011;22580;57.670;12.006;2024-01-30T05:59:04;0.40;;;0.40;;
13012;SDS011;22580;57.670;12.006;2024-01-30T06:01:33;0.20;;;0.20;;
13012;SDS011;22580;57.670;12.006;2024-01-30T06:04:00;0.20;;;0.20;;
13012;SDS011;22580;57.670;12.006;2024-01-30T06:06:29;0.10;;;0.10;;
13012;SDS011;22580;57.670;12.006;2024-01-30T06:08:57;0.30;;;0.30;;
13012;SDS011;22580;57.670;12.006;2024-01-30T06:11:24;0.10;;;0.10;;
13012;SDS011;22580;57.670;12.006;2024-01-30T06:13:52;0.20;;;0.20;;
13012;SDS011;22580;57.670;12.006;2024-01-30T06:16:19;0.10;;;0.10;;
13012;SDS011;22580;57.670;12.006;2024-01-30T06:18:47;0.20;;;0.20;;
13012;SDS011;22580;57.670;12.006;2024-01-30T06:21:15;0.23;;;0.23;;
13012;SDS011;22580;57.670;12.006;2024-01-30T06:23:43;0.20;;;0.20;;
13012;SDS011;22580;57.670;12.006;2024-01-30T06:26:11;0.10;;;0.10;;
13012;SDS011;22580;57.670;12.006;2024-01-30T06:28:37;0.10;;;0.10;;
13012;SDS011;22580;57.670;12.006;2024-01-30T06:31:05;0.30;;;0.30;;
13012;SDS011;22580;57.670;12.006;2024-01-30T06:33:32;0.37;;;0.37;;
13012;SDS011;22580;57.670;12.006;2024-01-30T06:35:59;0.30;;;0.30;;
13012;SDS011;22580;57.670;12.006;2024-01-30T06:38:26;0.20;;;0.20;;
13012;SDS011;22580;57.670;12.006;2024-01-30T06:40:56;0.23;;;0.23;;
13012;SDS011;22580;57.670;12.006;2024-01-30T06:43:23;0.20;;;0.20;;
13012;SDS011;22580;57.670;12.006;2024-01-30T06:45:50;0.20;;;0.20;;
13012;SDS011;22580;57.670;12.006;2024-01-30T06:48:18;0.33;;;0.33;;
13012;SDS011;22580;57.670;12.006;2024-01-30T06:50:45;0.43;;;0.30;;
13012;SDS011;22580;57.670;12.006;2024-01-30T06:53:13;0.20;;;0.20;;
13012;SDS011;22580;57.670;12.006;2024-01-30T06:55:40;0.20;;;0.20;;
13012;SDS011;22580;57.670;12.006;2024-01-30T06:58:08;0.20;;;0.20;;
13012;SDS011;22580;57.670;12.006;2024-01-30T07:00:35;0.20;;;0.20;;
13012;SDS011;22580;57.670;12.006;2024-01-30T07:03:04;0.30;;;0.30;;
13012;SDS011;22580;57.670;12.006;2024-01-30T07:05:31;0.40;;;0.40;;
13012;SDS011;22580;57.670;12.006;2024-01-30T07:07:58;0.60;;;0.50;;
13012;SDS011;22580;57.670;12.006;2024-01-30T07:10:25;0.30;;;0.30;;
13012;SDS011;22580;57.670;12.006;2024-01-30T07:12:52;0.40;;;0.40;;
13012;SDS011;22580;57.670;12.006;2024-01-30T07:15:20;0.30;;;0.30;;
13012;SDS011;22580;57.670;12.006;2024-01-30T07:17:47;0.40;;;0.40;;
13012;SDS011;22580;57.670;12.006;2024-01-30T07:20:14;0.30;;;0.30;;
13012;SDS011;22580;57.670;12.006;2024-01-30T07:22:42;0.50;;;0.50;;
13012;SDS011;22580;57.670;12.006;2024-01-30T07:25:10;0.20;;;0.20;;
13012;SDS011;22580;57.670;12.006;2024-01-30T07:27:38;0.40;;;0.40;;
13012;SDS011;22580;57.670;12.006;2024-01-30T07:30:06;0.30;;;0.30;;
13012;SDS011;22580;57.670;12.006;2024-01-30T07:32:35;0.30;;;0.30;;
13012;SDS011;22580;57.670;12.006;2024-01-30T07:35:02;0.20;;;0.20;;
13012;SDS011;22580;57.670;12.006;2024-01-30T07:37:29;0.30;;;0.30;;
13012;SDS011;22580;57.670;12.006;2024-01-30T07:39:56;0.20;;;0.20;;
13012;SDS011;22580;57.670;12.006;2024-01-30T07:42:23;0.30;;;0.30;;
13012;SDS011;22580;57.670;12.006;2024-01-30T07:44:50;0.13;;;0.13;;
13012;SDS011;22580;57.670;12.006;2024-01-30T07:47:17;0.20;;;0.20;;
13012;SDS011;22580;57.670;12.006;2024-01-30T07:49:46;0.30;;;0.30;;
13012;SDS011;22580;57.670;12.006;2024-01-30T07:52:13;0.20;;;0.20;;
13012;SDS011;22580;57.670;12.006;2024-01-30T07:54:49;0.10;;;0.10;;
13012;SDS011;22580;57.670;12.006;2024-01-30T07:57:17;0.20;;;0.20;;
13012;SDS011;22580;57.670;12.006;2024-01-30T07:59:44;0.10;;;0.10;;
13012;SDS011;22580;57.670;12.006;2024-01-30T08:02:11;0.20;;;0.20;;
13012;SDS011;22580;57.670;12.006;2024-01-30T08:04:38;0.20;;;0.20;;
13012;SDS011;22580;57.670;12.006;2024-01-30T08:07:07;0.10;;;0.10;;
13012;SDS011;22580;57.670;12.006;2024-01-30T08:09:35;0.10;;;0.10;;
13012;SDS011;22580;57.670;12.006;2024-01-30T08:12:03;0.13;;;0.13;;
13012;SDS011;22580;57.670;12.006;2024-01-30T08:14:30;0.17;;;0.17;;
13012;SDS011;22580;57.670;12.006;2024-01-30T08:16:57;0.20;;;0.20;;
13012;SDS011;22580;57.670;12.006;2024-01-30T08:19:24;0.17;;;0.17;;
13012;SDS011;22580;57.670;12.006;2024-01-30T08:21:51;0.30;;;0.30;;
13012;SDS011;22580;57.670;12.006;2024-01-30T08:24:20;0.20;;;0.20;;
13012;SDS011;22580;57.670;12.006;2024-01-30T08:26:47;0.20;;;0.20;;
13012;SDS011;22580;57.670;12.006;2024-01-30T08:29:13;0.20;;;0.20;;
13012;SDS011;22580;57.670;12.006;2024-01-30T08:31:40;0.20;;;0.20;;
13012;SDS011;22580;57.670;12.006;2024-01-30T08:34:07;0.20;;;0.20;;
13012;SDS011;22580;57.670;12.006;2024-01-30T08:36:34;0.20;;;0.20;;
13012;SDS011;22580;57.670;12.006;2024-01-30T08:39:01;0.30;;;0.30;;
13012;SDS011;22580;57.670;12.006;2024-01-30T08:41:32;0.20;;;0.20;;
13012;SDS011;22580;57.670;12.006;2024-01-30T08:43:58;0.20;;;0.20;;
13012;SDS011;22580;57.670;12.006;2024-01-30T08:46:25;0.10;;;0.10;;
13012;SDS011;22580;57.670;12.006;2024-01-30T08:48:52;0.10;;;0.10;;
13012;SDS011;22580;57.670;12.006;2024-01-30T08:51:19;0.20;;;0.20;;
13012;SDS011;22580;57.670;12.006;2024-01-30T08:53:46;0.40;;;0.40;;
13012;SDS011;22580;57.670;12.006;2024-01-30T08:56:13;0.23;;;0.23;;
13012;SDS011;22580;57.670;12.006;2024-01-30T08:58:42;0.10;;;0.10;;
13012;SDS011;22580;57.670;12.006;2024-01-30T09:01:09;0.40;;;0.40;;
13012;SDS011;22580;57.670;12.006;2024-01-30T09:03:36;0.30;;;0.30;;
13012;SDS011;22580;57.670;12.006;2024-01-30T09:06:07;0.30;;;0.30;;
13012;SDS011;22580;57.670;12.006;2024-01-30T09:08:35;0.17;;;0.17;;
13012;SDS011;22580;57.670;12.006;2024-01-30T09:11:08;0.43;;;0.43;;
13012;SDS011;22580;57.670;12.006;2024-01-30T09:13:35;0.40;;;0.40;;
13012;SDS011;22580;57.670;12.006;2024-01-30T09:16:04;0.40;;;0.40;;
13012;SDS011;22580;57.670;12.006;2024-01-30T09:18:31;0.33;;;0.33;;
13012;SDS011;22580;57.670;12.006;2024-01-30T09:20:58;0.20;;;0.20;;
13012;SDS011;22580;57.670;12.006;2024-01-30T09:23:26;0.20;;;0.20;;
13012;SDS011;22580;57.670;12.006;2024-01-30T09:25:55;0.27;;;0.27;;
13012;SDS011;22580;57.670;12.006;2024-01-30T09:28:22;0.30;;;0.30;;
13012;SDS011;22580;57.670;12.006;2024-01-30T09:30:49;0.53;;;0.53;;
13012;SDS011;22580;57.670;12.006;2024-01-30T09:33:18;0.50;;;0.50;;
13012;SDS011;22580;57.670;12.006;2024-01-30T09:35:46;0.30;;;0.30;;
13012;SDS011;22580;57.670;12.006;2024-01-30T09:38:12;0.30;;;0.30;;
13012;SDS011;22580;57.670;12.006;2024-01-30T09:40:40;0.40;;;0.37;;
13012;SDS011;22580;57.670;12.006;2024-01-30T09:43:08;0.30;;;0.30;;
13012;SDS011;22580;57.670;12.006;2024-01-30T09:45:41;0.40;;;0.40;;
13012;SDS011;22580;57.670;12.006;2024-01-30T09:48:10;0.40;;;0.40;;
13012;SDS011;22580;57.670;12.006;2024-01-30T09:50:39;0.43;;;0.43;;
13012;SDS011;22580;57.670;12.006;2024-01-30T09:53:06;0.40;;;0.40;;
13012;SDS011;22580;57.670;12.006;2024-01-30T09:55:35;0.40;;;0.40;;
13012;SDS011;22580;57.670;12.006;2024-01-30T09:58:03;0.20;;;0.20;;
13012;SDS011;22580;57.670;12.006;2024-01-30T10:00:30;0.43;;;0.43;;
13012;SDS011;22580;57.670;12.006;2024-01-30T10:02:57;0.60;;;0.60;;
13012;SDS011;22580;57.670;12.006;2024-01-30T10:05:24;0.50;;;0.50;;
13012;SDS011;22580;57.670;12.006;2024-01-30T10:07:55;0.40;;;0.40;;
13012;SDS011;22580;57.670;12.006;2024-01-30T10:10:24;0.43;;;0.40;;
13012;SDS011;22580;57.670;12.006;2024-01-30T10:12:51;0.40;;;0.40;;
13012;SDS011;22580;57.670;12.006;2024-01-30T10:15:18;0.50;;;0.50;;
13012;SDS011;22580;57.670;12.006;2024-01-30T10:17:45;0.40;;;0.40;;
13012;SDS011;22580;57.670;12.006;2024-01-30T10:20:12;0.40;;;0.40;;
13012;SDS011;22580;57.670;12.006;2024-01-30T10:22:40;0.33;;;0.33;;
13012;SDS011;22580;57.670;12.006;2024-01-30T10:25:09;0.40;;;0.40;;
13012;SDS011;22580;57.670;12.006;2024-01-30T10:27:36;0.60;;;0.60;;
13012;SDS011;22580;57.670;12.006;2024-01-30T10:30:06;0.40;;;0.40;;
13012;SDS011;22580;57.670;12.006;2024-01-30T10:32:34;0.40;;;0.40;;
13012;SDS011;22580;57.670;12.006;2024-01-30T10:35:01;0.53;;;0.53;;
13012;SDS011;22580;57.670;12.006;2024-01-30T10:37:29;0.33;;;0.33;;
13012;SDS011;22580;57.670;12.006;2024-01-30T10:39:58;0.53;;;0.40;;
13012;SDS011;22580;57.670;12.006;2024-01-30T10:42:32;0.40;;;0.40;;
13012;SDS011;22580;57.670;12.006;2024-01-30T10:45:00;0.20;;;0.20;;
13012;SDS011;22580;57.670;12.006;2024-01-30T10:47:34;0.40;;;0.40;;
13012;SDS011;22580;57.670;12.006;2024-01-30T10:50:02;0.50;;;0.50;;
13012;SDS011;22580;57.670;12.006;2024-01-30T10:52:32;0.40;;;0.40;;
13012;SDS011;22580;57.670;12.006;2024-01-30T10:55:01;0.40;;;0.40;;
13012;SDS011;22580;57.670;12.006;2024-01-30T10:57:33;0.20;;;0.20;;
13012;SDS011;22580;57.670;12.006;2024-01-30T11:00:02;0.23;;;0.23;;
13012;SDS011;22580;57.670;12.006;2024-01-30T11:02:35;0.37;;;0.37;;
13012;SDS011;22580;57.670;12.006;2024-01-30T11:05:05;0.40;;;0.40;;
13012;SDS011;22580;57.670;12.006;2024-01-30T11:07:33;0.20;;;0.20;;
13012;SDS011;22580;57.670;12.006;2024-01-30T11:10:01;0.40;;;0.40;;
13012;SDS011;22580;57.670;12.006;2024-01-30T11:12:30;0.60;;;0.60;;
13012;SDS011;22580;57.670;12.006;2024-01-30T11:15:04;0.60;;;0.60;;
13012;SDS011;22580;57.670;12.006;2024-01-30T11:17:45;0.80;;;0.80;;
13012;SDS011;22580;57.670;12.006;2024-01-30T11:20:21;0.43;;;0.43;;
13012;SDS011;22580;57.670;12.006;2024-01-30T11:22:50;0.67;;;0.60;;
13012;SDS011;22580;57.670;12.006;2024-01-30T11:25:19;0.60;;;0.60;;
13012;SDS011;22580;57.670;12.006;2024-01-30T11:27:49;0.50;;;0.50;;
13012;SDS011;22580;57.670;12.006;2024-01-30T11:30:25;0.60;;;0.60;;
13012;SDS011;22580;57.670;12.006;2024-01-30T11:33:03;0.50;;;0.50;;
13012;SDS011;22580;57.670;12.006;2024-01-30T11:35:32;0.70;;;0.70;;
13012;SDS011;22580;57.670;12.006;2024-01-30T11:37:59;0.60;;;0.60;;
13012;SDS011;22580;57.670;12.006;2024-01-30T11:40:27;0.87;;;0.70;;
13012;SDS011;22580;57.670;12.006;2024-01-30T11:42:55;0.47;;;0.47;;
13012;SDS011;22580;57.670;12.006;2024-01-30T11:45:24;0.60;;;0.60;;
13012;SDS011;22580;57.670;12.006;2024-01-30T11:47:51;0.50;;;0.50;;
13012;SDS011;22580;57.670;12.006;2024-01-30T11:50:18;0.43;;;0.43;;
13012;SDS011;22580;57.670;12.006;2024-01-30T11:52:45;0.50;;;0.50;;
13012;SDS011;22580;57.670;12.006;2024-01-30T11:55:13;0.50;;;0.50;;
13012;SDS011;22580;57.670;12.006;2024-01-30T11:57:41;0.40;;;0.40;;
13012;SDS011;22580;57.670;12.006;2024-01-30T12:00:13;0.67;;;0.67;;
13012;SDS011;22580;57.670;12.006;2024-01-30T12:02:43;0.53;;;0.50;;
13012;SDS011;22580;57.670;12.006;2024-01-30T12:05:11;0.77;;;0.60;;
13012;SDS011;22580;57.670;12.006;2024-01-30T12:07:38;0.60;;;0.60;;
13012;SDS011;22580;57.670;12.006;2024-01-30T12:10:05;0.80;;;0.60;;
13012;SDS011;22580;57.670;12.006;2024-01-30T12:12:33;0.40;;;0.40;;
13012;SDS011;22580;57.670;12.006;2024-01-30T12:15:01;0.40;;;0.40;;
13012;SDS011;22580;57.670;12.006;2024-01-30T12:17:28;0.60;;;0.60;;
13012;SDS011;22580;57.670;12.006;2024-01-30T12:20:07;0.97;;;0.83;;
13012;SDS011;22580;57.670;12.006;2024-01-30T12:22:38;0.43;;;0.40;;
13012;SDS011;22580;57.670;12.006;2024-01-30T12:25:07;0.60;;;0.60;;
13012;SDS011;22580;57.670;12.006;2024-01-30T12:27:35;0.73;;;0.70;;
13012;SDS011;22580;57.670;12.006;2024-01-30T12:30:05;0.50;;;0.50;;
13012;SDS011;22580;57.670;12.006;2024-01-30T12:32:34;1.17;;;0.70;;
13012;SDS011;22580;57.670;12.006;2024-01-30T12:35:01;0.60;;;0.60;;
13012;SDS011;22580;57.670;12.006;2024-01-30T12:37:31;0.70;;;0.70;;
13012;SDS011;22580;57.670;12.006;2024-01-30T12:39:58;0.40;;;0.40;;
13012;SDS011;22580;57.670;12.006;2024-01-30T12:42:26;0.60;;;0.60;;
13012;SDS011;22580;57.670;12.006;2024-01-30T12:44:53;0.50;;;0.50;;
13012;SDS011;22580;57.670;12.006;2024-01-30T12:47:21;0.50;;;0.50;;
13012;SDS011;22580;57.670;12.006;2024-01-30T12:49:48;0.30;;;0.30;;
13012;SDS011;22580;57.670;12.006;2024-01-30T12:52:18;1.33;;;0.80;;
13012;SDS011;22580;57.670;12.006;2024-01-30T12:54:48;0.30;;;0.30;;
13012;SDS011;22580;57.670;12.006;2024-01-30T12:57:15;0.60;;;0.60;;
13012;SDS011;22580;57.670;12.006;2024-01-30T12:59:42;0.47;;;0.40;;
13012;SDS011;22580;57.670;12.006;2024-01-30T13:02:09;0.60;;;0.60;;
13012;SDS011;22580;57.670;12.006;2024-01-30T13:04:37;0.57;;;0.57;;
13012;SDS011;22580;57.670;12.006;2024-01-30T13:07:03;0.40;;;0.40;;
13012;SDS011;22580;57.670;12.006;2024-01-30T13:09:30;0.47;;;0.47;;
13012;SDS011;22580;57.670;12.006;2024-01-30T13:11:58;0.70;;;0.70;;
13012;SDS011;22580;57.670;12.006;2024-01-30T13:14:26;0.40;;;0.33;;
13012;SDS011;22580;57.670;12.006;2024-01-30T13:16:53;0.60;;;0.60;;
13012;SDS011;22580;57.670;12.006;2024-01-30T13:19:20;1.50;;;0.80;;
13012;SDS011;22580;57.670;12.006;2024-01-30T13:21:47;0.90;;;0.90;;
13012;SDS011;22580;57.670;12.006;2024-01-30T13:24:14;0.90;;;0.90;;
13012;SDS011;22580;57.670;12.006;2024-01-30T13:26:46;0.93;;;0.83;;
13012;SDS011;22580;57.670;12.006;2024-01-30T13:29:14;0.60;;;0.60;;
13012;SDS011;22580;57.670;12.006;2024-01-30T13:31:41;1.10;;;1.00;;
13012;SDS011;22580;57.670;12.006;2024-01-30T13:34:09;0.70;;;0.67;;
13012;SDS011;22580;57.670;12.006;2024-01-30T13:36:36;0.80;;;0.80;;
13012;SDS011;22580;57.670;12.006;2024-01-30T13:39:03;0.60;;;0.60;;
13012;SDS011;22580;57.670;12.006;2024-01-30T13:41:34;0.60;;;0.60;;
13012;SDS011;22580;57.670;12.006;2024-01-30T13:44:01;0.70;;;0.70;;
13012;SDS011;22580;57.670;12.006;2024-01-30T13:46:29;0.40;;;0.40;;
13012;SDS011;22580;57.670;12.006;2024-01-30T13:48:57;0.40;;;0.40;;
13012;SDS011;22580;57.670;12.006;2024-01-30T13:51:23;0.40;;;0.37;;
13012;SDS011;22580;57.670;12.006;2024-01-30T13:53:51;0.40;;;0.40;;
13012;SDS011;22580;57.670;12.006;2024-01-30T13:56:17;0.60;;;0.60;;
13012;SDS011;22580;57.670;12.006;2024-01-30T13:58:45;0.60;;;0.60;;
13012;SDS011;22580;57.670;12.006;2024-01-30T14:01:12;0.70;;;0.60;;
13012;SDS011;22580;57.670;12.006;2024-01-30T14:03:41;0.50;;;0.50;;
13012;SDS011;22580;57.670;12.006;2024-01-30T14:06:08;0.50;;;0.50;;
13012;SDS011;22580;57.670;12.006;2024-01-30T14:08:36;0.50;;;0.50;;
13012;SDS011;22580;57.670;12.006;2024-01-30T14:11:04;0.60;;;0.60;;
13012;SDS011;22580;57.670;12.006;2024-01-30T14:13:33;0.57;;;0.57;;
13012;SDS011;22580;57.670;12.006;2024-01-30T14:16:00;0.40;;;0.40;;
13012;SDS011;22580;57.670;12.006;2024-01-30T14:18:27;0.53;;;0.53;;
13012;SDS011;22580;57.670;12.006;2024-01-30T14:20:56;0.30;;;0.30;;
13012;SDS011;22580;57.670;12.006;2024-01-30T14:23:23;0.47;;;0.47;;
13012;SDS011;22580;57.670;12.006;2024-01-30T14:25:50;0.30;;;0.30;;
13012;SDS011;22580;57.670;12.006;2024-01-30T14:28:18;0.30;;;0.30;;
13012;SDS011;22580;57.670;12.006;2024-01-30T14:30:45;0.40;;;0.40;;
13012;SDS011;22580;57.670;12.006;2024-01-30T14:33:12;0.47;;;0.47;;
13012;SDS011;22580;57.670;12.006;2024-01-30T14:35:39;0.40;;;0.40;;
13012;SDS011;22580;57.670;12.006;2024-01-30T14:38:07;0.30;;;0.30;;